createdAt,value
2019-01-19T00:00:59.342Z,75.77
2019-01-19T00:04:15.683Z,75.88
2019-01-19T00:07:37.123Z,75.29
2019-01-19T00:10:42.005Z,75.29
2019-01-19T00:13:35.465Z,74.79
2019-01-19T00:16:18.659Z,75.27
2019-01-19T00:19:32.675Z,75.96
2019-01-19T00:22:24.966Z,75.45
2019-01-19T00:25:22.362Z,76.97
2019-01-19T00:28:18.009Z,77.67
2019-01-19T00:31:16.378Z,77.67
2019-01-19T00:34:08.433Z,76.10
2019-01-19T00:37:16.092Z,77.51
2019-01-19T00:40:34.111Z,76.68
2019-01-19T00:43:23.385Z,77.84
2019-01-19T00:46:21.512Z,77.58
2019-01-19T00:49:08.405Z,77.04
2019-01-19T00:52:03.997Z,75.85
2019-01-19T00:54:58.251Z,75.97
2019-01-19T00:58:34.514Z,77.04
2019-01-19T01:01:43.803Z,77.04
2019-01-19T01:04:38.247Z,78.25
2019-01-19T01:07:43.120Z,78.25
2019-01-19T01:10:38.187Z,77.54
2019-01-19T01:13:41.939Z,75.73
2019-01-19T01:16:25.134Z,77.29
2019-01-19T01:19:19.738Z,78.13
2019-01-19T01:22:40.670Z,78.13
2019-01-19T01:25:49.655Z,75.85
2019-01-19T01:28:52.430Z,75.14
2019-01-19T01:31:41.743Z,75.14
2019-01-19T01:34:40.208Z,75.29
2019-01-19T01:37:42.630Z,77.00
2019-01-19T01:40:46.151Z,76.11
2019-01-19T01:43:19.123Z,76.58
2019-01-19T01:46:52.563Z,77.33
2019-01-19T01:49:37.543Z,77.12
2019-01-19T01:52:49.611Z,78.67
2019-01-19T01:55:44.135Z,79.90
2019-01-19T01:58:36.289Z,77.18
2019-01-19T02:01:13.367Z,76.18
2019-01-19T02:04:18.119Z,77.03
2019-01-19T02:07:23.551Z,77.03
2019-01-19T02:10:18.956Z,77.91
2019-01-19T02:13:17.247Z,76.50
2019-01-19T02:16:32.648Z,77.27
2019-01-19T02:19:47.999Z,76.72
2019-01-19T02:22:39.163Z,76.54
2019-01-19T02:25:51.111Z,77.29
2019-01-19T02:28:28.205Z,77.57
2019-01-19T02:31:46.516Z,76.93
2019-01-19T02:34:30.231Z,76.89
2019-01-19T02:37:31.087Z,77.02
2019-01-19T02:40:31.511Z,76.84
2019-01-19T02:43:24.586Z,78.63
2019-01-19T02:46:49.011Z,77.07
2019-01-19T02:49:42.470Z,76.18
2019-01-19T02:52:33.247Z,76.76
2019-01-19T02:55:43.312Z,76.76
2019-01-19T02:58:40.283Z,76.64
2019-01-19T03:02:09.177Z,76.75
2019-01-19T03:05:08.184Z,75.76
2019-01-19T03:07:51.813Z,77.13
2019-01-19T03:10:59.010Z,78.10
2019-01-19T03:13:58.457Z,78.91
2019-01-19T03:17:06.114Z,78.91
2019-01-19T03:20:02.536Z,79.89
2019-01-19T03:23:07.726Z,79.37
2019-01-19T03:26:02.241Z,77.71
2019-01-19T03:28:53.868Z,76.72
2019-01-19T03:32:15.147Z,76.23
2019-01-19T03:35:18.182Z,77.78
2019-01-19T03:38:30.109Z,78.48
2019-01-19T03:41:22.042Z,78.26
2019-01-19T03:44:26.956Z,76.21
2019-01-19T03:47:25.959Z,76.03
2019-01-19T03:50:30.073Z,76.21
2019-01-19T03:53:07.174Z,77.11
2019-01-19T03:56:18.349Z,78.70
2019-01-19T03:59:11.579Z,78.00
2019-01-19T04:02:35.872Z,77.21
2019-01-19T04:05:50.723Z,78.69
2019-01-19T04:08:59.747Z,77.46
2019-01-19T04:12:07.673Z,79.24
2019-01-19T04:15:20.247Z,78.00
2019-01-19T04:18:05.314Z,79.10
2019-01-19T04:21:11.292Z,78.08
2019-01-19T04:23:41.591Z,77.31
2019-01-19T04:26:29.473Z,78.98
2019-01-19T04:28:57.656Z,77.57
2019-01-19T04:31:25.047Z,77.73
2019-01-19T04:33:52.693Z,77.51
2019-01-19T04:36:21.735Z,77.95
2019-01-19T04:38:49.738Z,78.41
2019-01-19T04:41:17.152Z,78.41
2019-01-19T04:43:44.571Z,77.19
2019-01-19T04:46:12.127Z,78.52
2019-01-19T04:48:40.376Z,78.67
2019-01-19T04:51:07.806Z,78.63
2019-01-19T04:53:35.321Z,78.22
2019-01-19T04:56:02.768Z,77.90
2019-01-19T04:58:30.259Z,79.05
2019-01-19T05:00:57.690Z,78.06
2019-01-19T05:03:25.167Z,77.66
2019-01-19T05:05:52.686Z,77.40
2019-01-19T05:08:20.080Z,77.52
2019-01-19T05:10:47.529Z,77.91
2019-01-19T05:13:14.944Z,77.78
2019-01-19T05:15:42.371Z,77.58
2019-01-19T05:18:09.964Z,77.45
2019-01-19T05:20:37.435Z,77.56
2019-01-19T05:23:04.846Z,77.21
2019-01-19T05:25:32.297Z,77.37
2019-01-19T05:27:59.767Z,77.70
2019-01-19T05:30:27.192Z,77.44
2019-01-19T05:32:54.606Z,76.59
2019-01-19T05:35:22.183Z,77.28
2019-01-19T05:37:49.597Z,76.84
2019-01-19T05:40:17.015Z,76.30
2019-01-19T05:42:44.529Z,77.44
2019-01-19T05:45:13.548Z,76.80
2019-01-19T05:47:41.027Z,77.06
2019-01-19T05:50:12.060Z,76.81
2019-01-19T05:52:39.472Z,76.94
2019-01-19T05:55:07.086Z,77.16
2019-01-19T05:57:34.513Z,78.19
2019-01-19T06:00:02.091Z,78.44
2019-01-19T06:02:29.792Z,77.97
2019-01-19T06:04:57.239Z,77.57
2019-01-19T06:07:24.723Z,77.57
2019-01-19T06:09:52.225Z,78.04
2019-01-19T06:12:19.737Z,77.56
2019-01-19T06:14:47.254Z,77.61
2019-01-19T06:17:14.658Z,79.31
2019-01-19T06:19:42.371Z,77.58
2019-01-19T06:22:10.285Z,77.30
2019-01-19T06:24:37.663Z,76.54
2019-01-19T06:27:05.111Z,77.75
2019-01-19T06:29:32.922Z,78.12
2019-01-19T06:32:00.314Z,78.16
2019-01-19T06:34:27.719Z,76.99
2019-01-19T06:36:55.421Z,77.43
2019-01-19T06:39:23.045Z,77.17
2019-01-19T06:41:50.464Z,77.17
2019-01-19T06:44:18.087Z,77.97
2019-01-19T06:46:45.549Z,77.95
2019-01-19T06:49:12.992Z,78.10
2019-01-19T06:51:40.479Z,77.18
2019-01-19T06:54:08.222Z,75.95
2019-01-19T06:56:35.724Z,77.17
2019-01-19T06:59:03.238Z,76.91
2019-01-19T07:01:30.678Z,77.13
2019-01-19T07:03:58.116Z,77.25
2019-01-19T07:06:25.735Z,76.76
2019-01-19T07:08:53.098Z,76.44
2019-01-19T07:11:20.592Z,76.97
2019-01-19T07:13:48.060Z,77.18
2019-01-19T07:16:15.514Z,78.62
2019-01-19T07:18:43.060Z,77.99
2019-01-19T07:21:10.519Z,76.76
2019-01-19T07:23:37.907Z,76.04
2019-01-19T07:26:05.780Z,76.66
2019-01-19T07:28:33.260Z,76.25
2019-01-19T07:31:00.734Z,75.86
2019-01-19T07:33:28.204Z,75.60
2019-01-19T07:35:55.620Z,75.14
2019-01-19T07:38:23.099Z,74.82
2019-01-19T07:40:50.665Z,75.75
2019-01-19T07:43:18.676Z,75.08
2019-01-19T07:45:46.066Z,76.45
2019-01-19T07:48:13.730Z,76.11
2019-01-19T07:50:41.115Z,77.21
2019-01-19T07:53:08.592Z,75.98
2019-01-19T07:55:36.029Z,75.77
2019-01-19T07:58:03.471Z,78.23
2019-01-19T08:00:32.252Z,77.98
2019-01-19T08:02:59.652Z,76.33
2019-01-19T08:05:27.209Z,77.02
2019-01-19T08:07:54.748Z,75.91
2019-01-19T08:10:22.256Z,76.59
2019-01-19T08:12:49.672Z,76.20
2019-01-19T08:15:19.536Z,76.27
2019-01-19T08:17:46.975Z,76.91
2019-01-19T08:20:14.947Z,76.20
2019-01-19T08:22:42.340Z,76.20
2019-01-19T08:25:10.086Z,75.36
2019-01-19T08:27:40.093Z,76.69
2019-01-19T08:30:11.913Z,75.52
2019-01-19T08:32:39.347Z,76.00
2019-01-19T08:35:07.464Z,76.48
2019-01-19T08:37:34.891Z,75.52
2019-01-19T08:40:02.318Z,74.72
2019-01-19T08:42:30.227Z,74.36
2019-01-19T08:44:57.879Z,74.08
2019-01-19T08:47:28.323Z,74.67
2019-01-19T08:49:55.791Z,74.21
2019-01-19T08:52:23.207Z,73.61
2019-01-19T08:54:50.690Z,74.61
2019-01-19T08:57:18.125Z,76.44
2019-01-19T08:59:45.549Z,75.97
2019-01-19T09:02:12.958Z,74.90
2019-01-19T09:04:40.400Z,74.31
2019-01-19T09:07:07.979Z,75.79
2019-01-19T09:09:35.427Z,75.25
2019-01-19T09:12:02.948Z,73.07
2019-01-19T09:14:30.426Z,72.63
2019-01-19T09:16:58.254Z,74.44
2019-01-19T09:19:25.770Z,75.31
2019-01-19T09:21:53.202Z,73.46
2019-01-19T09:24:23.958Z,73.92
2019-01-19T09:26:51.416Z,73.18
2019-01-19T09:29:18.831Z,74.17
2019-01-19T09:31:46.348Z,74.58
2019-01-19T09:34:13.810Z,72.95
2019-01-19T09:36:41.249Z,73.24
2019-01-19T09:39:19.253Z,72.83
2019-01-19T09:41:46.700Z,73.91
2019-01-19T09:44:14.239Z,72.96
2019-01-19T09:46:41.949Z,73.10
2019-01-19T09:49:09.494Z,72.70
2019-01-19T09:51:36.923Z,72.80
2019-01-19T09:54:04.724Z,74.55
2019-01-19T09:56:32.171Z,74.55
2019-01-19T09:58:59.619Z,73.18
2019-01-19T10:01:27.114Z,73.79
2019-01-19T10:03:54.564Z,74.55
2019-01-19T10:06:22.065Z,71.42
2019-01-19T10:08:49.565Z,71.09
2019-01-19T10:11:18.016Z,69.60
2019-01-19T10:13:45.888Z,71.44
2019-01-19T10:16:13.464Z,71.44
2019-01-19T10:18:40.928Z,70.17
2019-01-19T10:21:08.374Z,70.05
2019-01-19T10:23:35.871Z,70.05
2019-01-19T10:26:03.634Z,68.61
2019-01-19T10:28:31.067Z,68.61
2019-01-19T10:30:58.532Z,69.33
2019-01-19T10:33:25.968Z,69.93
2019-01-19T10:35:53.379Z,70.18
2019-01-19T10:38:20.922Z,69.26
2019-01-19T10:40:48.392Z,69.29
2019-01-19T10:43:15.885Z,68.76
2019-01-19T10:45:43.404Z,68.76
2019-01-19T10:48:10.986Z,67.57
2019-01-19T10:50:38.595Z,68.77
2019-01-19T10:53:06.183Z,68.16
2019-01-19T10:55:33.706Z,68.08
2019-01-19T10:58:01.143Z,67.01
2019-01-19T11:00:29.858Z,67.66
2019-01-19T11:03:01.000Z,66.95
2019-01-19T11:05:29.266Z,68.04
2019-01-19T11:08:03.567Z,68.12
2019-01-19T11:10:31.156Z,67.06
2019-01-19T11:12:58.703Z,66.90
2019-01-19T11:15:26.188Z,66.17
2019-01-19T11:17:53.606Z,66.17
2019-01-19T11:20:25.795Z,67.14
2019-01-19T11:22:55.960Z,66.90
2019-01-19T11:25:23.825Z,67.42
2019-01-19T11:27:51.393Z,66.94
2019-01-19T11:30:24.108Z,66.90
2019-01-19T11:32:51.670Z,67.96
2019-01-19T11:35:19.287Z,68.27
2019-01-19T11:37:46.812Z,68.01
2019-01-19T11:40:19.432Z,67.56
2019-01-19T11:42:47.785Z,68.46
2019-01-19T11:45:17.487Z,68.97
2019-01-19T11:47:45.045Z,67.78
2019-01-19T11:50:13.437Z,67.89
2019-01-19T11:52:40.852Z,67.89
2019-01-19T11:55:11.192Z,68.79
2019-01-19T11:57:38.650Z,68.49
2019-01-19T12:00:13.518Z,68.56
2019-01-19T12:02:40.988Z,68.56
2019-01-19T12:05:08.511Z,67.75
2019-01-19T12:07:36.113Z,66.95
2019-01-19T12:10:05.692Z,68.31
2019-01-19T12:12:33.111Z,68.33
2019-01-19T12:15:00.530Z,68.52
2019-01-19T12:17:27.976Z,65.96
2019-01-19T12:19:55.489Z,65.77
2019-01-19T12:22:22.921Z,66.01
2019-01-19T12:24:50.369Z,66.71
2019-01-19T12:27:17.872Z,66.89
2019-01-19T12:29:45.309Z,67.19
2019-01-19T12:32:12.770Z,67.19
2019-01-19T12:34:40.244Z,66.96
2019-01-19T12:37:07.652Z,67.57
2019-01-19T12:39:35.128Z,68.91
2019-01-19T12:42:02.662Z,68.42
2019-01-19T12:44:30.119Z,67.29
2019-01-19T12:46:57.611Z,67.33
2019-01-19T12:49:25.123Z,67.05
2019-01-19T12:51:52.554Z,67.05
2019-01-19T12:54:19.980Z,67.02
2019-01-19T12:56:47.475Z,67.40
2019-01-19T12:59:14.872Z,68.08
2019-01-19T13:01:42.372Z,68.08
2019-01-19T13:04:09.986Z,68.63
2019-01-19T13:06:59.625Z,69.45
2019-01-19T13:09:30.116Z,69.45
2019-01-19T13:12:28.389Z,67.59
2019-01-19T13:15:19.305Z,67.79
2019-01-19T13:18:10.856Z,68.54
2019-01-19T13:21:13.084Z,67.18
2019-01-19T13:24:40.454Z,69.19
2019-01-19T13:27:33.563Z,69.89
2019-01-19T13:30:46.425Z,70.73
2019-01-19T13:33:33.924Z,71.02
2019-01-19T13:36:38.139Z,70.83
2019-01-19T13:39:37.515Z,71.03
2019-01-19T13:42:55.784Z,72.30
2019-01-19T13:45:48.399Z,71.03
2019-01-19T13:48:50.663Z,71.33
2019-01-19T13:51:33.102Z,69.57
2019-01-19T13:55:03.457Z,69.74
2019-01-19T13:57:50.751Z,69.18
2019-01-19T14:00:54.794Z,70.26
2019-01-19T14:04:09.745Z,70.04
2019-01-19T14:07:27.893Z,71.56
2019-01-19T14:10:17.662Z,70.67
2019-01-19T14:13:29.866Z,69.85
2019-01-19T14:16:21.121Z,70.26
2019-01-19T14:19:29.463Z,71.10
2019-01-19T14:22:33.565Z,70.81
2019-01-19T14:25:23.853Z,70.81
2019-01-19T14:28:21.874Z,70.88
2019-01-19T14:31:17.383Z,71.13
2019-01-19T14:34:26.752Z,71.13
2019-01-19T14:37:38.806Z,69.07
2019-01-19T14:40:31.294Z,69.07
2019-01-19T14:43:51.522Z,69.57
2019-01-19T14:47:07.055Z,69.67
2019-01-19T14:50:18.315Z,69.18
2019-01-19T14:53:33.506Z,69.53
2019-01-19T14:56:51.666Z,69.52
2019-01-19T14:59:37.284Z,69.72
2019-01-19T15:02:48.531Z,69.79
2019-01-19T15:05:54.139Z,70.11
2019-01-19T15:08:38.936Z,69.96
2019-01-19T15:12:06.325Z,69.94
2019-01-19T15:15:27.906Z,71.19
2019-01-19T15:18:42.952Z,70.45
2019-01-19T15:22:05.132Z,70.90
2019-01-19T15:24:55.183Z,71.07
2019-01-19T15:27:59.717Z,71.16
2019-01-19T15:31:27.051Z,70.94
2019-01-19T15:34:54.097Z,71.77
2019-01-19T15:38:02.058Z,73.30
2019-01-19T15:41:05.289Z,73.30
2019-01-19T15:43:52.826Z,72.96
2019-01-19T15:46:56.880Z,73.69
2019-01-19T15:50:09.293Z,73.60
2019-01-19T15:52:48.166Z,73.60
2019-01-19T15:55:54.492Z,74.18
2019-01-19T15:58:34.085Z,74.09
2019-01-19T16:01:44.413Z,74.21
2019-01-19T16:05:01.609Z,74.25
2019-01-19T16:08:10.826Z,74.25
2019-01-19T16:11:28.719Z,75.31
2019-01-19T16:14:46.889Z,75.31
2019-01-19T16:17:35.037Z,75.58
2019-01-19T16:20:36.520Z,75.25
2019-01-19T16:23:44.369Z,75.27
2019-01-19T16:26:56.758Z,75.27
2019-01-19T16:29:55.831Z,75.17
2019-01-19T16:33:00.011Z,75.54
2019-01-19T16:36:05.219Z,74.76
2019-01-19T16:38:56.075Z,74.66
2019-01-19T16:41:57.038Z,74.62
2019-01-19T16:45:14.369Z,75.35
2019-01-19T16:48:18.981Z,74.94
2019-01-19T16:51:32.468Z,74.76
2019-01-19T16:54:18.720Z,75.03
2019-01-19T16:57:31.671Z,75.32
2019-01-19T17:00:32.481Z,75.32
2019-01-19T17:03:48.012Z,75.04
2019-01-19T17:06:42.519Z,74.84
2019-01-19T17:09:47.720Z,75.47
2019-01-19T17:12:39.585Z,74.83
2019-01-19T17:15:43.704Z,74.83
2019-01-19T17:18:33.791Z,74.57
2019-01-19T17:21:39.016Z,74.31
2019-01-19T17:24:36.026Z,74.99
2019-01-19T17:27:25.925Z,75.26
2019-01-19T17:30:27.913Z,75.88
2019-01-19T17:33:33.912Z,75.39
2019-01-19T17:36:31.233Z,75.27
2019-01-19T17:39:45.587Z,74.76
2019-01-19T17:42:50.555Z,74.76
2019-01-19T17:46:17.251Z,75.09
2019-01-19T17:49:29.132Z,75.09
2019-01-19T17:52:37.115Z,75.23
2019-01-19T17:55:34.668Z,75.20
2019-01-19T17:58:51.103Z,74.91
2019-01-19T18:02:00.011Z,74.95
2019-01-19T18:05:15.131Z,74.99
2019-01-19T18:08:10.210Z,75.12
2019-01-19T18:10:57.454Z,75.12
2019-01-19T18:14:03.072Z,74.74
2019-01-19T18:17:24.574Z,74.79
2019-01-19T18:20:32.424Z,75.00
2019-01-19T18:23:56.672Z,74.90
2019-01-19T18:27:10.459Z,74.80
2019-01-19T18:30:16.093Z,74.66
2019-01-19T18:33:29.801Z,75.07
2019-01-19T18:36:54.616Z,74.93
2019-01-19T18:39:39.477Z,75.08
2019-01-19T18:42:36.249Z,75.85
2019-01-19T18:45:59.613Z,75.22
2019-01-19T18:49:04.139Z,74.87
2019-01-19T18:51:58.599Z,74.43
2019-01-19T18:55:00.675Z,74.43
2019-01-19T18:58:15.515Z,74.72
2019-01-19T19:01:32.804Z,75.42
2019-01-19T19:04:45.099Z,75.91
2019-01-19T19:07:34.194Z,76.26
2019-01-19T19:10:24.232Z,75.79
2019-01-19T19:13:40.262Z,75.67
2019-01-19T19:16:57.442Z,75.39
2019-01-19T19:19:43.465Z,75.76
2019-01-19T19:23:23.306Z,76.34
2019-01-19T19:26:10.331Z,76.32
2019-01-19T19:29:14.432Z,75.50
2019-01-19T19:31:53.230Z,76.22
2019-01-19T19:35:11.690Z,76.48
2019-01-19T19:38:10.807Z,75.85
2019-01-19T19:41:04.248Z,76.00
2019-01-19T19:44:11.978Z,75.23
2019-01-19T19:47:23.455Z,75.57
2019-01-19T19:50:14.960Z,75.64
2019-01-19T19:52:43.004Z,76.43
2019-01-19T19:55:09.323Z,76.83
2019-01-19T19:57:37.246Z,76.29
2019-01-19T20:00:07.619Z,75.68
2019-01-19T20:02:35.535Z,75.20
2019-01-19T20:05:04.502Z,74.95
2019-01-19T20:07:34.751Z,74.99
2019-01-19T20:10:02.647Z,75.58
2019-01-19T20:12:30.740Z,75.32
2019-01-19T20:14:58.616Z,75.23
2019-01-19T20:17:26.583Z,75.32
2019-01-19T20:19:54.576Z,75.04
2019-01-19T20:22:22.435Z,74.89
2019-01-19T20:24:50.367Z,77.65
2019-01-19T20:27:18.175Z,77.31
2019-01-19T20:29:46.292Z,77.31
2019-01-19T20:32:14.249Z,75.61
2019-01-19T20:34:42.186Z,77.44
2019-01-19T20:37:10.201Z,76.87
2019-01-19T20:39:38.286Z,77.51
2019-01-19T20:42:06.278Z,78.62
2019-01-19T20:44:34.242Z,77.58
2019-01-19T20:47:02.134Z,77.11
2019-01-19T20:49:30.106Z,78.04
2019-01-19T20:51:58.016Z,79.81
2019-01-19T20:54:25.732Z,79.04
2019-01-19T20:56:53.589Z,78.59
2019-01-19T20:59:21.308Z,78.59
2019-01-19T21:01:49.177Z,76.83
2019-01-19T21:04:18.600Z,76.83
2019-01-19T21:06:46.571Z,78.35
2019-01-19T21:09:14.389Z,77.63
2019-01-19T21:11:42.328Z,78.29
2019-01-19T21:14:10.164Z,77.67
2019-01-19T21:16:37.945Z,78.71
2019-01-19T21:19:05.804Z,77.96
2019-01-19T21:21:33.390Z,78.11
2019-01-19T21:24:01.046Z,78.44
2019-01-19T21:26:29.038Z,78.78
2019-01-19T21:28:56.746Z,77.58
2019-01-19T21:31:24.349Z,80.29
2019-01-19T21:33:52.307Z,79.82
2019-01-19T21:36:19.969Z,79.25
2019-01-19T21:38:47.604Z,80.05
2019-01-19T21:41:15.077Z,79.14
2019-01-19T21:43:43.283Z,78.14
2019-01-19T21:46:10.967Z,77.48
2019-01-19T21:48:38.385Z,78.03
2019-01-19T21:51:05.903Z,81.04
2019-01-19T21:53:33.316Z,79.05
2019-01-19T21:56:00.793Z,79.85
2019-01-19T21:58:28.396Z,79.17
2019-01-19T22:00:56.032Z,79.27
2019-01-19T22:03:23.445Z,79.18
2019-01-19T22:05:50.872Z,77.92
2019-01-19T22:08:18.364Z,77.99
2019-01-19T22:10:46.475Z,79.31
2019-01-19T22:13:14.071Z,79.17
2019-01-19T22:15:41.563Z,79.64
2019-01-19T22:18:09.026Z,78.54
2019-01-19T22:20:36.523Z,77.47
2019-01-19T22:23:03.972Z,77.76
2019-01-19T22:25:31.422Z,77.71
2019-01-19T22:27:58.919Z,78.59
2019-01-19T22:30:26.456Z,78.10
2019-01-19T22:32:55.468Z,78.23
2019-01-19T22:35:25.957Z,78.45
2019-01-19T22:37:53.397Z,78.12
2019-01-19T22:40:20.947Z,79.23
2019-01-19T22:42:48.509Z,79.70
2019-01-19T22:45:15.999Z,79.04
2019-01-19T22:47:43.533Z,78.56
2019-01-19T22:50:13.252Z,78.61
2019-01-19T22:52:40.686Z,78.37
2019-01-19T22:55:08.378Z,79.03
2019-01-19T22:57:35.896Z,79.07
2019-01-19T23:00:28.579Z,78.85
2019-01-19T23:02:56.080Z,78.70
2019-01-19T23:05:23.627Z,79.57
2019-01-19T23:07:52.124Z,79.10
2019-01-19T23:10:19.583Z,79.01
2019-01-19T23:12:47.344Z,78.43
2019-01-19T23:15:14.986Z,78.54
2019-01-19T23:17:42.469Z,79.86
2019-01-19T23:20:09.973Z,79.05
2019-01-19T23:22:37.634Z,78.55
2019-01-19T23:25:06.544Z,78.99
2019-01-19T23:27:33.975Z,78.81
2019-01-19T23:30:01.492Z,78.22
2019-01-19T23:32:28.972Z,78.27
2019-01-19T23:34:56.472Z,78.31
2019-01-19T23:37:23.908Z,78.43
2019-01-19T23:39:51.368Z,79.08
2019-01-19T23:42:18.792Z,79.17
2019-01-19T23:44:46.200Z,78.48
2019-01-19T23:47:13.651Z,77.66
2019-01-19T23:49:42.350Z,78.51
2019-01-19T23:52:09.731Z,78.66
2019-01-19T23:54:37.212Z,78.37
2019-01-19T23:57:04.805Z,78.53
2019-01-19T23:59:32.226Z,79.06
